<?xml version="1.0" encoding="UTF-8"?>
<gpx xmlns="http://www.topografix.com/GPX/1/1" version="1.1" xmlns:xsi="http://www.w3.org/2001/XMLSchema-instance" xsi:schemaLocation="http://www.topografix.com/GPX/1/1 http://www.topografix.com/GPX/1/1/gpx.xsd" creator="MotionXGPSFull 24.4 Build 5112 R64">
<trk>
<name><![CDATA[Big Wave Bay Hike 2]]></name>
<desc><![CDATA[Apr 8, 2018 11:24 am]]></desc>
<trkseg>
<trkpt lat="22.2656898" lon="114.2501638">
<ele>6.877</ele>
<time>2018-04-08T03:24:07.036Z</time>
</trkpt>
<trkpt lat="22.2657243" lon="114.2501919">
<ele>8.232</ele>
<time>2018-04-08T03:24:11.812Z</time>
</trkpt>
<trkpt lat="22.2658298" lon="114.2502863">
<ele>11.788</ele>
<time>2018-04-08T03:24:19.016Z</time>
</trkpt>
<trkpt lat="22.2659262" lon="114.2503302">
<ele>15.892</ele>
<time>2018-04-08T03:24:24.049Z</time>
</trkpt>
<trkpt lat="22.2659262" lon="114.2503302">
<ele>18.763</ele>
<time>2018-04-08T03:24:28.059Z</time>
</trkpt>
<trkpt lat="22.2659262" lon="114.2503302">
<ele>20.015</ele>
<time>2018-04-08T03:25:07.057Z</time>
</trkpt>
<trkpt lat="22.2659262" lon="114.2503302">
<ele>19.849</ele>
<time>2018-04-08T03:25:14.043Z</time>
</trkpt>
<trkpt lat="22.2659947" lon="114.2503883">
<ele>20.122</ele>
<time>2018-04-08T03:25:37.037Z</time>
</trkpt>
<trkpt lat="22.2659947" lon="114.2503883">
<ele>20.113</ele>
<time>2018-04-08T03:25:57.063Z</time>
</trkpt>
<trkpt lat="22.2655196" lon="114.2503279">
<ele>18.348</ele>
<time>2018-04-08T03:26:34.813Z</time>
</trkpt>
<trkpt lat="22.2655498" lon="114.2508209">
<ele>18.340</ele>
<time>2018-04-08T03:26:57.086Z</time>
</trkpt>
<trkpt lat="22.2655034" lon="114.2509098">
<ele>17.900</ele>
<time>2018-04-08T03:27:02.531Z</time>
</trkpt>
<trkpt lat="22.2654080" lon="114.2509069">
<ele>16.664</ele>
<time>2018-04-08T03:27:07.917Z</time>
</trkpt>
<trkpt lat="22.2653225" lon="114.2509494">
<ele>15.242</ele>
<time>2018-04-08T03:27:13.081Z</time>
</trkpt>
<trkpt lat="22.2653341" lon="114.2510599">
<ele>14.428</ele>
<time>2018-04-08T03:27:18.788Z</time>
</trkpt>
<trkpt lat="22.2653231" lon="114.2511659">
<ele>14.189</ele>
<time>2018-04-08T03:27:24.433Z</time>
</trkpt>
<trkpt lat="22.2652834" lon="114.2512756">
<ele>14.130</ele>
<time>2018-04-08T03:27:30.788Z</time>
</trkpt>
<trkpt lat="22.2652236" lon="114.2513590">
<ele>14.076</ele>
<time>2018-04-08T03:27:36.754Z</time>
</trkpt>
<trkpt lat="22.2651823" lon="114.2514500">
<ele>13.960</ele>
<time>2018-04-08T03:27:42.936Z</time>
</trkpt>
<trkpt lat="22.2651185" lon="114.2515318">
<ele>13.673</ele>
<time>2018-04-08T03:27:50.237Z</time>
</trkpt>
<trkpt lat="22.2650599" lon="114.2516131">
<ele>13.261</ele>
<time>2018-04-08T03:27:59.475Z</time>
</trkpt>
<trkpt lat="22.2650049" lon="114.2516908">
<ele>12.881</ele>
<time>2018-04-08T03:28:09.621Z</time>
</trkpt>
<trkpt lat="22.2649440" lon="114.2517774">
<ele>12.593</ele>
<time>2018-04-08T03:28:20.772Z</time>
</trkpt>
<trkpt lat="22.2648635" lon="114.2518466">
<ele>12.430</ele>
<time>2018-04-08T03:28:27.017Z</time>
</trkpt>
<trkpt lat="22.2648272" lon="114.2519370">
<ele>12.370</ele>
<time>2018-04-08T03:28:31.034Z</time>
</trkpt>
<trkpt lat="22.2648272" lon="114.2519370">
<ele>12.365</ele>
<time>2018-04-08T03:28:33.060Z</time>
</trkpt>
<trkpt lat="22.2648272" lon="114.2519370">
<ele>12.367</ele>
<time>2018-04-08T03:28:33.160Z</time>
</trkpt>
<trkpt lat="22.2648758" lon="114.2520299">
<ele>12.355</ele>
<time>2018-04-08T03:28:42.032Z</time>
</trkpt>
<trkpt lat="22.2648758" lon="114.2520299">
<ele>12.350</ele>
<time>2018-04-08T03:28:49.036Z</time>
</trkpt>
<trkpt lat="22.2648758" lon="114.2520299">
<ele>12.344</ele>
<time>2018-04-08T03:28:49.318Z</time>
</trkpt>
<trkpt lat="22.2649721" lon="114.2521319">
<ele>12.339</ele>
<time>2018-04-08T03:29:13.260Z</time>
</trkpt>
<trkpt lat="22.2649862" lon="114.2522302">
<ele>12.027</ele>
<time>2018-04-08T03:29:24.038Z</time>
</trkpt>
<trkpt lat="22.2649322" lon="114.2523110">
<ele>11.222</ele>
<time>2018-04-08T03:29:35.039Z</time>
</trkpt>
<trkpt lat="22.2649322" lon="114.2523110">
<ele>10.476</ele>
<time>2018-04-08T03:29:45.045Z</time>
</trkpt>
<trkpt lat="22.2649322" lon="114.2523110">
<ele>10.290</ele>
<time>2018-04-08T03:30:11.555Z</time>
</trkpt>
<trkpt lat="22.2648648" lon="114.2524395">
<ele>10.462</ele>
<time>2018-04-08T03:30:30.680Z</time>
</trkpt>
<trkpt lat="22.2648290" lon="114.2525342">
<ele>10.683</ele>
<time>2018-04-08T03:30:41.996Z</time>
</trkpt>
<trkpt lat="22.2648290" lon="114.2525342">
<ele>10.821</ele>
<time>2018-04-08T03:31:00.998Z</time>
</trkpt>
<trkpt lat="22.2648290" lon="114.2525342">
<ele>10.859</ele>
<time>2018-04-08T03:31:01.098Z</time>
</trkpt>
<trkpt lat="22.2648245" lon="114.2526745">
<ele>10.845</ele>
<time>2018-04-08T03:31:13.999Z</time>
</trkpt>
<trkpt lat="22.2648245" lon="114.2526745">
<ele>10.825</ele>
<time>2018-04-08T03:31:19.999Z</time>
</trkpt>
<trkpt lat="22.2648245" lon="114.2526745">
<ele>10.820</ele>
<time>2018-04-08T03:31:20.099Z</time>
</trkpt>
<trkpt lat="22.2647564" lon="114.2527953">
<ele>10.825</ele>
<time>2018-04-08T03:31:58.353Z</time>
</trkpt>
<trkpt lat="22.2647438" lon="114.2528987">
<ele>12.134</ele>
<time>2018-04-08T03:32:05.998Z</time>
</trkpt>
<trkpt lat="22.2647438" lon="114.2528987">
<ele>15.530</ele>
<time>2018-04-08T03:32:10.998Z</time>
</trkpt>
<trkpt lat="22.2647438" lon="114.2528987">
<ele>18.358</ele>
<time>2018-04-08T03:32:30.247Z</time>
</trkpt>
<trkpt lat="22.2646683" lon="114.2529611">
<ele>16.799</ele>
<time>2018-04-08T03:32:48.997Z</time>
</trkpt>
<trkpt lat="22.2646683" lon="114.2529611">
<ele>15.860</ele>
<time>2018-04-08T03:32:49.997Z</time>
</trkpt>
<trkpt lat="22.2646683" lon="114.2529611">
<ele>15.908</ele>
<time>2018-04-08T03:32:52.012Z</time>
</trkpt>
<trkpt lat="22.2645780" lon="114.2529953">
<ele>16.265</ele>
<time>2018-04-08T03:33:05.804Z</time>
</trkpt>
<trkpt lat="22.2644869" lon="114.2530252">
<ele>17.268</ele>
<time>2018-04-08T03:33:15.500Z</time>
</trkpt>
<trkpt lat="22.2643961" lon="114.2530520">
<ele>20.531</ele>
<time>2018-04-08T03:33:26.140Z</time>
</trkpt>
<trkpt lat="22.2643266" lon="114.2531256">
<ele>24.457</ele>
<time>2018-04-08T03:33:37.629Z</time>
</trkpt>
<trkpt lat="22.2642511" lon="114.2531813">
<ele>27.157</ele>
<time>2018-04-08T03:33:47.844Z</time>
</trkpt>
<trkpt lat="22.2642208" lon="114.2532826">
<ele>28.914</ele>
<time>2018-04-08T03:33:59.660Z</time>
</trkpt>
<trkpt lat="22.2642273" lon="114.2533942">
<ele>30.321</ele>
<time>2018-04-08T03:34:10.994Z</time>
</trkpt>
<trkpt lat="22.2642273" lon="114.2533942">
<ele>31.353</ele>
<time>2018-04-08T03:34:22.994Z</time>
</trkpt>
<trkpt lat="22.2642273" lon="114.2533942">
<ele>31.793</ele>
<time>2018-04-08T03:34:51.638Z</time>
</trkpt>
<trkpt lat="22.2641256" lon="114.2534282">
<ele>31.722</ele>
<time>2018-04-08T03:35:03.674Z</time>
</trkpt>
<trkpt lat="22.2640589" lon="114.2533599">
<ele>31.891</ele>
<time>2018-04-08T03:35:11.752Z</time>
</trkpt>
<trkpt lat="22.2639684" lon="114.2533382">
<ele>32.925</ele>
<time>2018-04-08T03:35:20.993Z</time>
</trkpt>
<trkpt lat="22.2639684" lon="114.2533382">
<ele>34.177</ele>
<time>2018-04-08T03:35:26.993Z</time>
</trkpt>
<trkpt lat="22.2639684" lon="114.2533382">
<ele>34.692</ele>
<time>2018-04-08T03:36:14.555Z</time>
</trkpt>
<trkpt lat="22.2637710" lon="114.2534410">
<ele>34.558</ele>
<time>2018-04-08T03:36:48.636Z</time>
</trkpt>
<trkpt lat="22.2636843" lon="114.2534158">
<ele>34.358</ele>
<time>2018-04-08T03:36:56.990Z</time>
</trkpt>
<trkpt lat="22.2636843" lon="114.2534158">
<ele>34.362</ele>
<time>2018-04-08T03:37:02.990Z</time>
</trkpt>
<trkpt lat="22.2636843" lon="114.2534158">
<ele>34.447</ele>
<time>2018-04-08T03:37:03.090Z</time>
</trkpt>
<trkpt lat="22.2635890" lon="114.2534666">
<ele>34.377</ele>
<time>2018-04-08T03:37:22.295Z</time>
</trkpt>
<trkpt lat="22.2635268" lon="114.2535464">
<ele>35.069</ele>
<time>2018-04-08T03:37:32.011Z</time>
</trkpt>
<trkpt lat="22.2634707" lon="114.2536309">
<ele>37.561</ele>
<time>2018-04-08T03:37:40.989Z</time>
</trkpt>
<trkpt lat="22.2634707" lon="114.2536309">
<ele>41.055</ele>
<time>2018-04-08T03:37:41.989Z</time>
</trkpt>
<trkpt lat="22.2634707" lon="114.2536309">
<ele>43.157</ele>
<time>2018-04-08T03:37:42.663Z</time>
</trkpt>
<trkpt lat="22.2633659" lon="114.2536836">
<ele>43.007</ele>
<time>2018-04-08T03:38:12.939Z</time>
</trkpt>
<trkpt lat="22.2632776" lon="114.2537226">
<ele>42.646</ele>
<time>2018-04-08T03:38:23.845Z</time>
</trkpt>
<trkpt lat="22.2632101" lon="114.2537899">
<ele>43.941</ele>
<time>2018-04-08T03:38:35.732Z</time>
</trkpt>
<trkpt lat="22.2631208" lon="114.2538443">
<ele>46.080</ele>
<time>2018-04-08T03:38:49.133Z</time>
</trkpt>
<trkpt lat="22.2630308" lon="114.2538799">
<ele>47.883</ele>
<time>2018-04-08T03:39:00.430Z</time>
</trkpt>
<trkpt lat="22.2629741" lon="114.2539591">
<ele>49.559</ele>
<time>2018-04-08T03:39:12.205Z</time>
</trkpt>
<trkpt lat="22.2628792" lon="114.2539743">
<ele>51.258</ele>
<time>2018-04-08T03:39:25.361Z</time>
</trkpt>
<trkpt lat="22.2627784" lon="114.2539798">
<ele>52.616</ele>
<time>2018-04-08T03:39:38.161Z</time>
</trkpt>
<trkpt lat="22.2626926" lon="114.2540185">
<ele>53.457</ele>
<time>2018-04-08T03:39:49.997Z</time>
</trkpt>
<trkpt lat="22.2626926" lon="114.2540185">
<ele>53.827</ele>
<time>2018-04-08T03:39:59.997Z</time>
</trkpt>
<trkpt lat="22.2626926" lon="114.2540185">
<ele>53.855</ele>
<time>2018-04-08T03:40:00.097Z</time>
</trkpt>
<trkpt lat="22.2625374" lon="114.2540229">
<ele>53.781</ele>
<time>2018-04-08T03:40:18.977Z</time>
</trkpt>
<trkpt lat="22.2624425" lon="114.2540130">
<ele>54.234</ele>
<time>2018-04-08T03:40:27.111Z</time>
</trkpt>
<trkpt lat="22.2623498" lon="114.2540238">
<ele>55.587</ele>
<time>2018-04-08T03:40:35.609Z</time>
</trkpt>
<trkpt lat="22.2622586" lon="114.2540137">
<ele>57.427</ele>
<time>2018-04-08T03:40:45.659Z</time>
</trkpt>
<trkpt lat="22.2621624" lon="114.2540168">
<ele>59.219</ele>
<time>2018-04-08T03:40:57.711Z</time>
</trkpt>
<trkpt lat="22.2620711" lon="114.2540149">
<ele>60.846</ele>
<time>2018-04-08T03:41:08.025Z</time>
</trkpt>
<trkpt lat="22.2619900" lon="114.2539701">
<ele>62.208</ele>
<time>2018-04-08T03:41:17.995Z</time>
</trkpt>
<trkpt lat="22.2619900" lon="114.2539701">
<ele>63.152</ele>
<time>2018-04-08T03:41:19.995Z</time>
</trkpt>
<trkpt lat="22.2619900" lon="114.2539701">
<ele>63.519</ele>
<time>2018-04-08T03:43:38.377Z</time>
</trkpt>
<trkpt lat="22.2619042" lon="114.2540302">
<ele>63.223</ele>
<time>2018-04-08T03:43:55.614Z</time>
</trkpt>
<trkpt lat="22.2618148" lon="114.2540151">
<ele>64.607</ele>
<time>2018-04-08T03:44:05.823Z</time>
</trkpt>
<trkpt lat="22.2617128" lon="114.2540294">
<ele>68.567</ele>
<time>2018-04-08T03:44:18.157Z</time>
</trkpt>
<trkpt lat="22.2616295" lon="114.2539918">
<ele>72.969</ele>
<time>2018-04-08T03:44:29.991Z</time>
</trkpt>
<trkpt lat="22.2616295" lon="114.2539918">
<ele>75.603</ele>
<time>2018-04-08T03:44:44.990Z</time>
</trkpt>
<trkpt lat="22.2616295" lon="114.2539918">
<ele>76.488</ele>
<time>2018-04-08T03:44:45.090Z</time>
</trkpt>
<trkpt lat="22.2615285" lon="114.2538857">
<ele>76.190</ele>
<time>2018-04-08T03:45:08.244Z</time>
</trkpt>
<trkpt lat="22.2614365" lon="114.2538847">
<ele>75.520</ele>
<time>2018-04-08T03:45:18.097Z</time>
</trkpt>
<trkpt lat="22.2613479" lon="114.2539179">
<ele>75.091</ele>
<time>2018-04-08T03:45:27.551Z</time>
</trkpt>
<trkpt lat="22.2612617" lon="114.2539599">
<ele>75.054</ele>
<time>2018-04-08T03:45:37.246Z</time>
</trkpt>
<trkpt lat="22.2611744" lon="114.2539900">
<ele>75.377</ele>
<time>2018-04-08T03:45:46.999Z</time>
</trkpt>
<trkpt lat="22.2611744" lon="114.2539900">
<ele>75.933</ele>
<time>2018-04-08T03:45:48.999Z</time>
</trkpt>
<trkpt lat="22.2611744" lon="114.2539900">
<ele>76.304</ele>
<time>2018-04-08T03:45:50.916Z</time>
</trkpt>
<trkpt lat="22.2610819" lon="114.2540085">
<ele>76.024</ele>
<time>2018-04-08T03:46:02.998Z</time>
</trkpt>
<trkpt lat="22.2610819" lon="114.2540085">
<ele>75.876</ele>
<time>2018-04-08T03:46:09.998Z</time>
</trkpt>
<trkpt lat="22.2610819" lon="114.2540085">
<ele>75.853</ele>
<time>2018-04-08T03:46:10.098Z</time>
</trkpt>
<trkpt lat="22.2609818" lon="114.2540723">
<ele>75.852</ele>
<time>2018-04-08T03:46:23.998Z</time>
</trkpt>
<trkpt lat="22.2609818" lon="114.2540723">
<ele>75.813</ele>
<time>2018-04-08T03:46:33.998Z</time>
</trkpt>
<trkpt lat="22.2609818" lon="114.2540723">
<ele>75.785</ele>
<time>2018-04-08T03:46:54.861Z</time>
</trkpt>
<trkpt lat="22.2607298" lon="114.2541011">
<ele>75.770</ele>
<time>2018-04-08T03:47:34.121Z</time>
</trkpt>
<trkpt lat="22.2606604" lon="114.2541683">
<ele>76.467</ele>
<time>2018-04-08T03:47:43.425Z</time>
</trkpt>
<trkpt lat="22.2605692" lon="114.2541484">
<ele>78.690</ele>
<time>2018-04-08T03:47:52.750Z</time>
</trkpt>
<trkpt lat="22.2604771" lon="114.2541498">
<ele>81.635</ele>
<time>2018-04-08T03:48:01.622Z</time>
</trkpt>
<trkpt lat="22.2603869" lon="114.2541501">
<ele>83.711</ele>
<time>2018-04-08T03:48:09.995Z</time>
</trkpt>
<trkpt lat="22.2603869" lon="114.2541501">
<ele>84.498</ele>
<time>2018-04-08T03:48:09.995Z</time>
</trkpt>
<trkpt lat="22.2603869" lon="114.2541501">
<ele>84.501</ele>
<time>2018-04-08T03:48:11.382Z</time>
</trkpt>
<trkpt lat="22.2602955" lon="114.2541437">
<ele>84.287</ele>
<time>2018-04-08T03:48:25.931Z</time>
</trkpt>
<trkpt lat="22.2602000" lon="114.2541432">
<ele>84.447</ele>
<time>2018-04-08T03:48:34.175Z</time>
</trkpt>
<trkpt lat="22.2601594" lon="114.2540546">
<ele>84.816</ele>
<time>2018-04-08T03:48:42.139Z</time>
</trkpt>
<trkpt lat="22.2600783" lon="114.2540064">
<ele>85.213</ele>
<time>2018-04-08T03:48:50.994Z</time>
</trkpt>
<trkpt lat="22.2600783" lon="114.2540064">
<ele>85.392</ele>
<time>2018-04-08T03:48:59.994Z</time>
</trkpt>
<trkpt lat="22.2600783" lon="114.2540064">
<ele>85.337</ele>
<time>2018-04-08T03:49:00.094Z</time>
</trkpt>
<trkpt lat="22.2599710" lon="114.2539583">
<ele>85.228</ele>
<time>2018-04-08T03:49:19.966Z</time>
</trkpt>
<trkpt lat="22.2599000" lon="114.2538931">
<ele>85.333</ele>
<time>2018-04-08T03:49:28.193Z</time>
</trkpt>
<trkpt lat="22.2598064" lon="114.2539011">
<ele>85.974</ele>
<time>2018-04-08T03:49:34.993Z</time>
</trkpt>
<trkpt lat="22.2598064" lon="114.2539011">
<ele>87.054</ele>
<time>2018-04-08T03:49:36.993Z</time>
</trkpt>
<trkpt lat="22.2598064" lon="114.2539011">
<ele>87.788</ele>
<time>2018-04-08T03:49:42.884Z</time>
</trkpt>
<trkpt lat="22.2597231" lon="114.2538635">
<ele>87.293</ele>
<time>2018-04-08T03:50:12.861Z</time>
</trkpt>
<trkpt lat="22.2596406" lon="114.2538244">
<ele>87.525</ele>
<time>2018-04-08T03:50:22.383Z</time>
</trkpt>
<trkpt lat="22.2595552" lon="114.2537862">
<ele>89.232</ele>
<time>2018-04-08T03:50:29.992Z</time>
</trkpt>
<trkpt lat="22.2595552" lon="114.2537862">
<ele>91.764</ele>
<time>2018-04-08T03:50:37.992Z</time>
</trkpt>
<trkpt lat="22.2595552" lon="114.2537862">
<ele>93.299</ele>
<time>2018-04-08T03:50:38.092Z</time>
</trkpt>
<trkpt lat="22.2594680" lon="114.2537132">
<ele>93.166</ele>
<time>2018-04-08T03:50:55.425Z</time>
</trkpt>
<trkpt lat="22.2593941" lon="114.2536473">
<ele>92.921</ele>
<time>2018-04-08T03:51:11.270Z</time>
</trkpt>
<trkpt lat="22.2593323" lon="114.2535674">
<ele>94.112</ele>
<time>2018-04-08T03:51:27.542Z</time>
</trkpt>
<trkpt lat="22.2592746" lon="114.2534875">
<ele>96.368</ele>
<time>2018-04-08T03:51:45.611Z</time>
</trkpt>
<trkpt lat="22.2592648" lon="114.2533811">
<ele>98.781</ele>
<time>2018-04-08T03:51:56.318Z</time>
</trkpt>
<trkpt lat="22.2592055" lon="114.2533050">
<ele>100.834</ele>
<time>2018-04-08T03:52:05.530Z</time>
</trkpt>
<trkpt lat="22.2591274" lon="114.2532372">
<ele>102.089</ele>
<time>2018-04-08T03:52:15.985Z</time>
</trkpt>
<trkpt lat="22.2590798" lon="114.2531468">
<ele>102.574</ele>
<time>2018-04-08T03:52:26.211Z</time>
</trkpt>
<trkpt lat="22.2590067" lon="114.2530799">
<ele>102.670</ele>
<time>2018-04-08T03:52:36.540Z</time>
</trkpt>
<trkpt lat="22.2589525" lon="114.2530010">
<ele>102.774</ele>
<time>2018-04-08T03:52:44.874Z</time>
</trkpt>
<trkpt lat="22.2589075" lon="114.2529143">
<ele>103.086</ele>
<time>2018-04-08T03:52:53.134Z</time>
</trkpt>
<trkpt lat="22.2588397" lon="114.2528399">
<ele>103.439</ele>
<time>2018-04-08T03:53:02.998Z</time>
</trkpt>
<trkpt lat="22.2588397" lon="114.2528399">
<ele>103.603</ele>
<time>2018-04-08T03:53:08.998Z</time>
</trkpt>
<trkpt lat="22.2588397" lon="114.2528399">
<ele>103.574</ele>
<time>2018-04-08T03:53:30.374Z</time>
</trkpt>
<trkpt lat="22.2588034" lon="114.2527348">
<ele>103.467</ele>
<time>2018-04-08T03:53:45.093Z</time>
</trkpt>
<trkpt lat="22.2587822" lon="114.2526397">
<ele>103.636</ele>
<time>2018-04-08T03:53:51.997Z</time>
</trkpt>
<trkpt lat="22.2587822" lon="114.2526397">
<ele>104.084</ele>
<time>2018-04-08T03:53:53.997Z</time>
</trkpt>
<trkpt lat="22.2587822" lon="114.2526397">
<ele>104.438</ele>
<time>2018-04-08T03:54:16.666Z</time>
</trkpt>
<trkpt lat="22.2586893" lon="114.2525820">
<ele>104.148</ele>
<time>2018-04-08T03:54:33.347Z</time>
</trkpt>
<trkpt lat="22.2586501" lon="114.2524906">
<ele>104.328</ele>
<time>2018-04-08T03:54:41.059Z</time>
</trkpt>
<trkpt lat="22.2586084" lon="114.2523913">
<ele>105.277</ele>
<time>2018-04-08T03:54:48.798Z</time>
</trkpt>
<trkpt lat="22.2585353" lon="114.2523291">
<ele>106.473</ele>
<time>2018-04-08T03:54:55.996Z</time>
</trkpt>
<trkpt lat="22.2585353" lon="114.2523291">
<ele>107.205</ele>
<time>2018-04-08T03:54:59.996Z</time>
</trkpt>
<trkpt lat="22.2585353" lon="114.2523291">
<ele>107.396</ele>
<time>2018-04-08T03:55:38.350Z</time>
</trkpt>
<trkpt lat="22.2585070" lon="114.2522285">
<ele>107.156</ele>
<time>2018-04-08T03:55:52.921Z</time>
</trkpt>
<trkpt lat="22.2584269" lon="114.2521711">
<ele>107.097</ele>
<time>2018-04-08T03:56:01.667Z</time>
</trkpt>
<trkpt lat="22.2583628" lon="114.2520955">
<ele>107.267</ele>
<time>2018-04-08T03:56:10.055Z</time>
</trkpt>
<trkpt lat="22.2582957" lon="114.2520288">
<ele>107.791</ele>
<time>2018-04-08T03:56:18.773Z</time>
</trkpt>
<trkpt lat="22.2582056" lon="114.2520013">
<ele>108.717</ele>
<time>2018-04-08T03:56:28.994Z</time>
</trkpt>
<trkpt lat="22.2582056" lon="114.2520013">
<ele>109.829</ele>
<time>2018-04-08T03:56:32.994Z</time>
</trkpt>
<trkpt lat="22.2582056" lon="114.2520013">
<ele>110.499</ele>
<time>2018-04-08T03:56:33.094Z</time>
</trkpt>
<trkpt lat="22.2580926" lon="114.2520149">
<ele>110.010</ele>
<time>2018-04-08T03:56:53.719Z</time>
</trkpt>
<trkpt lat="22.2580039" lon="114.2520330">
<ele>110.209</ele>
<time>2018-04-08T03:57:06.234Z</time>
</trkpt>
<trkpt lat="22.2579115" lon="114.2520577">
<ele>111.409</ele>
<time>2018-04-08T03:57:18.168Z</time>
</trkpt>
<trkpt lat="22.2578258" lon="114.2521025">
<ele>112.839</ele>
<time>2018-04-08T03:57:30.365Z</time>
</trkpt>
<trkpt lat="22.2577355" lon="114.2521354">
<ele>113.673</ele>
<time>2018-04-08T03:57:47.540Z</time>
</trkpt>
<trkpt lat="22.2576355" lon="114.2521472">
<ele>114.097</ele>
<time>2018-04-08T03:58:09.775Z</time>
</trkpt>
<trkpt lat="22.2575463" lon="114.2521819">
<ele>114.699</ele>
<time>2018-04-08T03:58:27.991Z</time>
</trkpt>
<trkpt lat="22.2575463" lon="114.2521819">
<ele>115.588</ele>
<time>2018-04-08T03:58:34.991Z</time>
</trkpt>
<trkpt lat="22.2575463" lon="114.2521819">
<ele>116.164</ele>
<time>2018-04-08T03:58:50.054Z</time>
</trkpt>
<trkpt lat="22.2573289" lon="114.2522581">
<ele>116.088</ele>
<time>2018-04-08T03:59:20.500Z</time>
</trkpt>
<trkpt lat="22.2572358" lon="114.2522506">
<ele>117.418</ele>
<time>2018-04-08T03:59:27.997Z</time>
</trkpt>
<trkpt lat="22.2572358" lon="114.2522506">
<ele>121.567</ele>
<time>2018-04-08T03:59:42.998Z</time>
</trkpt>
<trkpt lat="22.2572358" lon="114.2522506">
<ele>125.135</ele>
<time>2018-04-08T03:59:43.098Z</time>
</trkpt>
<trkpt lat="22.2571380" lon="114.2522939">
<ele>125.038</ele>
<time>2018-04-08T04:00:06.980Z</time>
</trkpt>
<trkpt lat="22.2570486" lon="114.2523109">
<ele>123.904</ele>
<time>2018-04-08T04:00:15.468Z</time>
</trkpt>
<trkpt lat="22.2569578" lon="114.2522960">
<ele>124.597</ele>
<time>2018-04-08T04:00:22.469Z</time>
</trkpt>
<trkpt lat="22.2568714" lon="114.2522665">
<ele>126.276</ele>
<time>2018-04-08T04:00:28.998Z</time>
</trkpt>
<trkpt lat="22.2568714" lon="114.2522665">
<ele>127.354</ele>
<time>2018-04-08T04:00:37.998Z</time>
</trkpt>
<trkpt lat="22.2568714" lon="114.2522665">
<ele>127.656</ele>
<time>2018-04-08T04:00:38.098Z</time>
</trkpt>
<trkpt lat="22.2567796" lon="114.2521611">
<ele>127.525</ele>
<time>2018-04-08T04:00:52.998Z</time>
</trkpt>
<trkpt lat="22.2567796" lon="114.2521611">
<ele>127.342</ele>
<time>2018-04-08T04:00:56.998Z</time>
</trkpt>
<trkpt lat="22.2567796" lon="114.2521611">
<ele>127.286</ele>
<time>2018-04-08T04:00:57.098Z</time>
</trkpt>
<trkpt lat="22.2567249" lon="114.2520789">
<ele>127.269</ele>
<time>2018-04-08T04:01:34.461Z</time>
</trkpt>
<trkpt lat="22.2566732" lon="114.2519919">
<ele>127.569</ele>
<time>2018-04-08T04:01:48.997Z</time>
</trkpt>
<trkpt lat="22.2566732" lon="114.2519919">
<ele>128.442</ele>
<time>2018-04-08T04:01:49.997Z</time>
</trkpt>
<trkpt lat="22.2566732" lon="114.2519919">
<ele>129.165</ele>
<time>2018-04-08T04:01:56.154Z</time>
</trkpt>
<trkpt lat="22.2567238" lon="114.2519071">
<ele>128.653</ele>
<time>2018-04-08T04:02:13.996Z</time>
</trkpt>
<trkpt lat="22.2567238" lon="114.2519071">
<ele>128.363</ele>
<time>2018-04-08T04:02:22.996Z</time>
</trkpt>
<trkpt lat="22.2567238" lon="114.2519071">
<ele>128.327</ele>
<time>2018-04-08T04:02:23.096Z</time>
</trkpt>
<trkpt lat="22.2567437" lon="114.2517690">
<ele>128.411</ele>
<time>2018-04-08T04:02:32.996Z</time>
</trkpt>
<trkpt lat="22.2567437" lon="114.2517690">
<ele>128.452</ele>
<time>2018-04-08T04:02:47.996Z</time>
</trkpt>
<trkpt lat="22.2567437" lon="114.2517690">
<ele>128.402</ele>
<time>2018-04-08T04:03:49.994Z</time>
</trkpt>
<trkpt lat="22.2567437" lon="114.2517690">
<ele>128.324</ele>
<time>2018-04-08T04:06:20.991Z</time>
</trkpt>
<trkpt lat="22.2567437" lon="114.2517690">
<ele>128.274</ele>
<time>2018-04-08T04:07:17.936Z</time>
</trkpt>
<trkpt lat="22.2567470" lon="114.2515112">
<ele>128.251</ele>
<time>2018-04-08T04:08:23.997Z</time>
</trkpt>
<trkpt lat="22.2567470" lon="114.2515112">
<ele>128.235</ele>
<time>2018-04-08T04:08:25.997Z</time>
</trkpt>
<trkpt lat="22.2567470" lon="114.2515112">
<ele>128.200</ele>
<time>2018-04-08T04:08:44.997Z</time>
</trkpt>
<trkpt lat="22.2567470" lon="114.2515112">
<ele>128.146</ele>
<time>2018-04-08T04:08:45.097Z</time>
</trkpt>
<trkpt lat="22.2566521" lon="114.2514544">
<ele>128.102</ele>
<time>2018-04-08T04:09:33.647Z</time>
</trkpt>
<trkpt lat="22.2565810" lon="114.2513863">
<ele>131.053</ele>
<time>2018-04-08T04:09:43.996Z</time>
</trkpt>
<trkpt lat="22.2565810" lon="114.2513863">
<ele>138.790</ele>
<time>2018-04-08T04:09:51.995Z</time>
</trkpt>
<trkpt lat="22.2565810" lon="114.2513863">
<ele>145.225</ele>
<time>2018-04-08T04:10:21.995Z</time>
</trkpt>
<trkpt lat="22.2565810" lon="114.2513863">
<ele>145.056</ele>
<time>2018-04-08T04:10:22.095Z</time>
</trkpt>
<trkpt lat="22.2564718" lon="114.2513148">
<ele>142.473</ele>
<time>2018-04-08T04:10:36.994Z</time>
</trkpt>
<trkpt lat="22.2564718" lon="114.2513148">
<ele>142.225</ele>
<time>2018-04-08T04:10:42.994Z</time>
</trkpt>
<trkpt lat="22.2564718" lon="114.2513148">
<ele>143.284</ele>
<time>2018-04-08T04:10:56.994Z</time>
</trkpt>
<trkpt lat="22.2564718" lon="114.2513148">
<ele>143.446</ele>
<time>2018-04-08T04:10:57.094Z</time>
</trkpt>
<trkpt lat="22.2563361" lon="114.2512552">
<ele>142.998</ele>
<time>2018-04-08T04:11:37.993Z</time>
</trkpt>
<trkpt lat="22.2563361" lon="114.2512552">
<ele>142.823</ele>
<time>2018-04-08T04:13:40.990Z</time>
</trkpt>
<trkpt lat="22.2563361" lon="114.2512552">
<ele>142.891</ele>
<time>2018-04-08T04:13:41.090Z</time>
</trkpt>
<trkpt lat="22.2562392" lon="114.2512750">
<ele>142.919</ele>
<time>2018-04-08T04:14:13.905Z</time>
</trkpt>
<trkpt lat="22.2561511" lon="114.2513006">
<ele>146.663</ele>
<time>2018-04-08T04:14:26.396Z</time>
</trkpt>
<trkpt lat="22.2560615" lon="114.2512795">
<ele>156.867</ele>
<time>2018-04-08T04:14:37.999Z</time>
</trkpt>
<trkpt lat="22.2560615" lon="114.2512795">
<ele>167.983</ele>
<time>2018-04-08T04:14:52.998Z</time>
</trkpt>
<trkpt lat="22.2560615" lon="114.2512795">
<ele>173.104</ele>
<time>2018-04-08T04:16:10.390Z</time>
</trkpt>
<trkpt lat="22.2559368" lon="114.2512812">
<ele>172.452</ele>
<time>2018-04-08T04:16:35.672Z</time>
</trkpt>
<trkpt lat="22.2558502" lon="114.2512330">
<ele>171.424</ele>
<time>2018-04-08T04:16:47.420Z</time>
</trkpt>
<trkpt lat="22.2557601" lon="114.2512273">
<ele>174.336</ele>
<time>2018-04-08T04:16:57.996Z</time>
</trkpt>
<trkpt lat="22.2557601" lon="114.2512273">
<ele>179.307</ele>
<time>2018-04-08T04:17:04.995Z</time>
</trkpt>
<trkpt lat="22.2557601" lon="114.2512273">
<ele>182.138</ele>
<time>2018-04-08T04:17:05.095Z</time>
</trkpt>
<trkpt lat="22.2556653" lon="114.2512128">
<ele>180.311</ele>
<time>2018-04-08T04:17:37.361Z</time>
</trkpt>
<trkpt lat="22.2555797" lon="114.2511605">
<ele>180.445</ele>
<time>2018-04-08T04:17:49.424Z</time>
</trkpt>
<trkpt lat="22.2555293" lon="114.2510798">
<ele>183.593</ele>
<time>2018-04-08T04:17:55.994Z</time>
</trkpt>
<trkpt lat="22.2555293" lon="114.2510798">
<ele>187.779</ele>
<time>2018-04-08T04:18:02.994Z</time>
</trkpt>
<trkpt lat="22.2555293" lon="114.2510798">
<ele>189.980</ele>
<time>2018-04-08T04:18:21.994Z</time>
</trkpt>
<trkpt lat="22.2555293" lon="114.2510798">
<ele>189.712</ele>
<time>2018-04-08T04:18:22.094Z</time>
</trkpt>
<trkpt lat="22.2554195" lon="114.2510337">
<ele>188.795</ele>
<time>2018-04-08T04:18:56.977Z</time>
</trkpt>
<trkpt lat="22.2553985" lon="114.2509388">
<ele>189.524</ele>
<time>2018-04-08T04:19:04.993Z</time>
</trkpt>
<trkpt lat="22.2553985" lon="114.2509388">
<ele>192.083</ele>
<time>2018-04-08T04:19:15.993Z</time>
</trkpt>
<trkpt lat="22.2553985" lon="114.2509388">
<ele>194.089</ele>
<time>2018-04-08T04:20:12.640Z</time>
</trkpt>
<trkpt lat="22.2551975" lon="114.2508686">
<ele>193.963</ele>
<time>2018-04-08T04:20:42.078Z</time>
</trkpt>
<trkpt lat="22.2550953" lon="114.2508695">
<ele>194.478</ele>
<time>2018-04-08T04:20:51.990Z</time>
</trkpt>
<trkpt lat="22.2550953" lon="114.2508695">
<ele>197.996</ele>
<time>2018-04-08T04:20:53.990Z</time>
</trkpt>
<trkpt lat="22.2550953" lon="114.2508695">
<ele>201.312</ele>
<time>2018-04-08T04:20:56.960Z</time>
</trkpt>
<trkpt lat="22.2550012" lon="114.2508599">
<ele>199.355</ele>
<time>2018-04-08T04:21:07.998Z</time>
</trkpt>
<trkpt lat="22.2550012" lon="114.2508599">
<ele>198.165</ele>
<time>2018-04-08T04:21:15.998Z</time>
</trkpt>
<trkpt lat="22.2550012" lon="114.2508599">
<ele>198.150</ele>
<time>2018-04-08T04:21:41.902Z</time>
</trkpt>
<trkpt lat="22.2548476" lon="114.2508401">
<ele>198.666</ele>
<time>2018-04-08T04:22:01.471Z</time>
</trkpt>
<trkpt lat="22.2547580" lon="114.2508551">
<ele>200.657</ele>
<time>2018-04-08T04:22:08.474Z</time>
</trkpt>
<trkpt lat="22.2546620" lon="114.2508478">
<ele>205.188</ele>
<time>2018-04-08T04:22:15.826Z</time>
</trkpt>
<trkpt lat="22.2545749" lon="114.2508091">
<ele>210.371</ele>
<time>2018-04-08T04:22:22.998Z</time>
</trkpt>
<trkpt lat="22.2545749" lon="114.2508091">
<ele>213.828</ele>
<time>2018-04-08T04:22:36.998Z</time>
</trkpt>
<trkpt lat="22.2545749" lon="114.2508091">
<ele>215.134</ele>
<time>2018-04-08T04:23:06.398Z</time>
</trkpt>
<trkpt lat="22.2544086" lon="114.2507881">
<ele>214.838</ele>
<time>2018-04-08T04:23:27.418Z</time>
</trkpt>
<trkpt lat="22.2543093" lon="114.2508005">
<ele>214.958</ele>
<time>2018-04-08T04:23:34.996Z</time>
</trkpt>
<trkpt lat="22.2543093" lon="114.2508005">
<ele>216.751</ele>
<time>2018-04-08T04:23:40.996Z</time>
</trkpt>
<trkpt lat="22.2543093" lon="114.2508005">
<ele>218.469</ele>
<time>2018-04-08T04:23:41.096Z</time>
</trkpt>
<trkpt lat="22.2542147" lon="114.2507875">
<ele>217.353</ele>
<time>2018-04-08T04:24:15.873Z</time>
</trkpt>
<trkpt lat="22.2541329" lon="114.2507435">
<ele>216.610</ele>
<time>2018-04-08T04:24:22.730Z</time>
</trkpt>
<trkpt lat="22.2540429" lon="114.2507217">
<ele>216.349</ele>
<time>2018-04-08T04:24:28.777Z</time>
</trkpt>
<trkpt lat="22.2539939" lon="114.2506392">
<ele>216.258</ele>
<time>2018-04-08T04:24:35.086Z</time>
</trkpt>
<trkpt lat="22.2539494" lon="114.2505496">
<ele>215.931</ele>
<time>2018-04-08T04:24:43.144Z</time>
</trkpt>
<trkpt lat="22.2539073" lon="114.2504624">
<ele>215.286</ele>
<time>2018-04-08T04:24:52.112Z</time>
</trkpt>
<trkpt lat="22.2538630" lon="114.2503677">
<ele>214.416</ele>
<time>2018-04-08T04:25:03.995Z</time>
</trkpt>
<trkpt lat="22.2538630" lon="114.2503677">
<ele>213.487</ele>
<time>2018-04-08T04:25:20.994Z</time>
</trkpt>
<trkpt lat="22.2538630" lon="114.2503677">
<ele>212.898</ele>
<time>2018-04-08T04:27:18.992Z</time>
</trkpt>
<trkpt lat="22.2538630" lon="114.2503677">
<ele>212.846</ele>
<time>2018-04-08T04:27:19.092Z</time>
</trkpt>
<trkpt lat="22.2538229" lon="114.2502756">
<ele>212.910</ele>
<time>2018-04-08T04:27:36.393Z</time>
</trkpt>
<trkpt lat="22.2537849" lon="114.2501861">
<ele>212.302</ele>
<time>2018-04-08T04:27:47.634Z</time>
</trkpt>
<trkpt lat="22.2537169" lon="114.2501158">
<ele>210.732</ele>
<time>2018-04-08T04:27:58.991Z</time>
</trkpt>
<trkpt lat="22.2537169" lon="114.2501158">
<ele>208.751</ele>
<time>2018-04-08T04:28:04.991Z</time>
</trkpt>
<trkpt lat="22.2537169" lon="114.2501158">
<ele>207.593</ele>
<time>2018-04-08T04:28:09.977Z</time>
</trkpt>
<trkpt lat="22.2536249" lon="114.2500611">
<ele>207.589</ele>
<time>2018-04-08T04:28:27.623Z</time>
</trkpt>
<trkpt lat="22.2535525" lon="114.2499896">
<ele>207.384</ele>
<time>2018-04-08T04:28:37.429Z</time>
</trkpt>
<trkpt lat="22.2534609" lon="114.2499371">
<ele>205.779</ele>
<time>2018-04-08T04:28:47.244Z</time>
</trkpt>
<trkpt lat="22.2533726" lon="114.2499008">
<ele>203.512</ele>
<time>2018-04-08T04:28:57.590Z</time>
</trkpt>
<trkpt lat="22.2533569" lon="114.2497900">
<ele>201.437</ele>
<time>2018-04-08T04:29:10.004Z</time>
</trkpt>
<trkpt lat="22.2533472" lon="114.2496856">
<ele>199.240</ele>
<time>2018-04-08T04:29:19.537Z</time>
</trkpt>
<trkpt lat="22.2533366" lon="114.2495808">
<ele>197.081</ele>
<time>2018-04-08T04:29:28.029Z</time>
</trkpt>
<trkpt lat="22.2533082" lon="114.2494871">
<ele>195.722</ele>
<time>2018-04-08T04:29:35.956Z</time>
</trkpt>
<trkpt lat="22.2532769" lon="114.2493867">
<ele>195.311</ele>
<time>2018-04-08T04:29:44.605Z</time>
</trkpt>
<trkpt lat="22.2532434" lon="114.2492961">
<ele>195.409</ele>
<time>2018-04-08T04:29:53.042Z</time>
</trkpt>
<trkpt lat="22.2532035" lon="114.2492076">
<ele>195.624</ele>
<time>2018-04-08T04:30:02.584Z</time>
</trkpt>
<trkpt lat="22.2531574" lon="114.2491140">
<ele>195.744</ele>
<time>2018-04-08T04:30:13.379Z</time>
</trkpt>
<trkpt lat="22.2531145" lon="114.2490190">
<ele>195.438</ele>
<time>2018-04-08T04:30:22.881Z</time>
</trkpt>
<trkpt lat="22.2530570" lon="114.2489376">
<ele>194.354</ele>
<time>2018-04-08T04:30:31.570Z</time>
</trkpt>
<trkpt lat="22.2530211" lon="114.2488411">
<ele>192.737</ele>
<time>2018-04-08T04:30:40.152Z</time>
</trkpt>
<trkpt lat="22.2530014" lon="114.2487456">
<ele>191.351</ele>
<time>2018-04-08T04:30:48.254Z</time>
</trkpt>
<trkpt lat="22.2529167" lon="114.2487099">
<ele>190.622</ele>
<time>2018-04-08T04:30:56.996Z</time>
</trkpt>
<trkpt lat="22.2529167" lon="114.2487099">
<ele>190.408</ele>
<time>2018-04-08T04:31:04.996Z</time>
</trkpt>
<trkpt lat="22.2529167" lon="114.2487099">
<ele>190.353</ele>
<time>2018-04-08T04:40:04.994Z</time>
</trkpt>
<trkpt lat="22.2529167" lon="114.2487099">
<ele>190.279</ele>
<time>2018-04-08T04:40:09.844Z</time>
</trkpt>
<trkpt lat="22.2528154" lon="114.2487075">
<ele>190.210</ele>
<time>2018-04-08T04:40:23.483Z</time>
</trkpt>
<trkpt lat="22.2527250" lon="114.2486801">
<ele>190.277</ele>
<time>2018-04-08T04:40:31.994Z</time>
</trkpt>
<trkpt lat="22.2527250" lon="114.2486801">
<ele>190.528</ele>
<time>2018-04-08T04:40:33.994Z</time>
</trkpt>
<trkpt lat="22.2527250" lon="114.2486801">
<ele>190.714</ele>
<time>2018-04-08T04:40:34.094Z</time>
</trkpt>
<trkpt lat="22.2525901" lon="114.2486717">
<ele>190.633</ele>
<time>2018-04-08T04:40:53.123Z</time>
</trkpt>
<trkpt lat="22.2524956" lon="114.2486777">
<ele>190.860</ele>
<time>2018-04-08T04:41:01.103Z</time>
</trkpt>
<trkpt lat="22.2523935" lon="114.2486915">
<ele>191.939</ele>
<time>2018-04-08T04:41:09.199Z</time>
</trkpt>
<trkpt lat="22.2523018" lon="114.2487203">
<ele>193.373</ele>
<time>2018-04-08T04:41:15.993Z</time>
</trkpt>
<trkpt lat="22.2523018" lon="114.2487203">
<ele>194.385</ele>
<time>2018-04-08T04:41:25.993Z</time>
</trkpt>
<trkpt lat="22.2523018" lon="114.2487203">
<ele>194.747</ele>
<time>2018-04-08T04:41:27.540Z</time>
</trkpt>
<trkpt lat="22.2521428" lon="114.2488108">
<ele>194.560</ele>
<time>2018-04-08T04:42:00.683Z</time>
</trkpt>
<trkpt lat="22.2520529" lon="114.2487895">
<ele>194.163</ele>
<time>2018-04-08T04:42:08.990Z</time>
</trkpt>
<trkpt lat="22.2519629" lon="114.2487889">
<ele>193.788</ele>
<time>2018-04-08T04:42:15.838Z</time>
</trkpt>
<trkpt lat="22.2518674" lon="114.2487807">
<ele>193.269</ele>
<time>2018-04-08T04:42:22.757Z</time>
</trkpt>
<trkpt lat="22.2517663" lon="114.2487884">
<ele>192.315</ele>
<time>2018-04-08T04:42:29.997Z</time>
</trkpt>
<trkpt lat="22.2517663" lon="114.2487884">
<ele>191.135</ele>
<time>2018-04-08T04:42:39.998Z</time>
</trkpt>
<trkpt lat="22.2517663" lon="114.2487884">
<ele>190.395</ele>
<time>2018-04-08T04:42:40.098Z</time>
</trkpt>
<trkpt lat="22.2516533" lon="114.2488342">
<ele>190.361</ele>
<time>2018-04-08T04:42:54.999Z</time>
</trkpt>
<trkpt lat="22.2516533" lon="114.2488342">
<ele>190.539</ele>
<time>2018-04-08T04:43:04.999Z</time>
</trkpt>
<trkpt lat="22.2516533" lon="114.2488342">
<ele>190.485</ele>
<time>2018-04-08T04:43:15.284Z</time>
</trkpt>
<trkpt lat="22.2515573" lon="114.2488397">
<ele>190.287</ele>
<time>2018-04-08T04:43:28.999Z</time>
</trkpt>
<trkpt lat="22.2515573" lon="114.2488397">
<ele>190.143</ele>
<time>2018-04-08T04:43:30.998Z</time>
</trkpt>
<trkpt lat="22.2515573" lon="114.2488397">
<ele>190.052</ele>
<time>2018-04-08T04:43:33.400Z</time>
</trkpt>
<trkpt lat="22.2514570" lon="114.2488629">
<ele>189.978</ele>
<time>2018-04-08T04:43:45.998Z</time>
</trkpt>
<trkpt lat="22.2514570" lon="114.2488629">
<ele>189.905</ele>
<time>2018-04-08T04:44:00.998Z</time>
</trkpt>
<trkpt lat="22.2514570" lon="114.2488629">
<ele>189.820</ele>
<time>2018-04-08T04:44:01.098Z</time>
</trkpt>
<trkpt lat="22.2513975" lon="114.2489436">
<ele>189.685</ele>
<time>2018-04-08T04:44:18.201Z</time>
</trkpt>
<trkpt lat="22.2513386" lon="114.2490191">
<ele>188.536</ele>
<time>2018-04-08T04:44:28.937Z</time>
</trkpt>
<trkpt lat="22.2513871" lon="114.2489255">
<ele>185.574</ele>
<time>2018-04-08T04:44:39.997Z</time>
</trkpt>
<trkpt lat="22.2513871" lon="114.2489255">
<ele>182.520</ele>
<time>2018-04-08T04:44:41.997Z</time>
</trkpt>
<trkpt lat="22.2513871" lon="114.2489255">
<ele>181.183</ele>
<time>2018-04-08T04:44:48.464Z</time>
</trkpt>
<trkpt lat="22.2513543" lon="114.2490201">
<ele>181.855</ele>
<time>2018-04-08T04:45:05.997Z</time>
</trkpt>
<trkpt lat="22.2513543" lon="114.2490201">
<ele>182.170</ele>
<time>2018-04-08T04:45:08.996Z</time>
</trkpt>
<trkpt lat="22.2513543" lon="114.2490201">
<ele>182.072</ele>
<time>2018-04-08T04:46:11.911Z</time>
</trkpt>
<trkpt lat="22.2513623" lon="114.2489038">
<ele>181.861</ele>
<time>2018-04-08T04:46:25.995Z</time>
</trkpt>
<trkpt lat="22.2513623" lon="114.2489038">
<ele>181.810</ele>
<time>2018-04-08T04:46:27.995Z</time>
</trkpt>
<trkpt lat="22.2513623" lon="114.2489038">
<ele>181.833</ele>
<time>2018-04-08T04:46:38.128Z</time>
</trkpt>
<trkpt lat="22.2513299" lon="114.2487852">
<ele>181.778</ele>
<time>2018-04-08T04:46:56.364Z</time>
</trkpt>
<trkpt lat="22.2512356" lon="114.2487775">
<ele>181.563</ele>
<time>2018-04-08T04:47:08.056Z</time>
</trkpt>
<trkpt lat="22.2511458" lon="114.2487612">
<ele>180.712</ele>
<time>2018-04-08T04:47:18.021Z</time>
</trkpt>
<trkpt lat="22.2510568" lon="114.2487375">
<ele>179.064</ele>
<time>2018-04-08T04:47:24.994Z</time>
</trkpt>
<trkpt lat="22.2510568" lon="114.2487375">
<ele>177.485</ele>
<time>2018-04-08T04:47:29.994Z</time>
</trkpt>
<trkpt lat="22.2510568" lon="114.2487375">
<ele>176.773</ele>
<time>2018-04-08T04:47:33.968Z</time>
</trkpt>
<trkpt lat="22.2509466" lon="114.2486668">
<ele>176.787</ele>
<time>2018-04-08T04:47:46.751Z</time>
</trkpt>
<trkpt lat="22.2508729" lon="114.2485995">
<ele>176.779</ele>
<time>2018-04-08T04:47:53.784Z</time>
</trkpt>
<trkpt lat="22.2507856" lon="114.2486330">
<ele>176.141</ele>
<time>2018-04-08T04:48:00.932Z</time>
</trkpt>
<trkpt lat="22.2506993" lon="114.2486771">
<ele>175.130</ele>
<time>2018-04-08T04:48:08.310Z</time>
</trkpt>
<trkpt lat="22.2506056" lon="114.2486947">
<ele>174.266</ele>
<time>2018-04-08T04:48:15.993Z</time>
</trkpt>
<trkpt lat="22.2506056" lon="114.2486947">
<ele>173.684</ele>
<time>2018-04-08T04:48:29.992Z</time>
</trkpt>
<trkpt lat="22.2506056" lon="114.2486947">
<ele>173.399</ele>
<time>2018-04-08T04:48:30.092Z</time>
</trkpt>
<trkpt lat="22.2505041" lon="114.2487849">
<ele>173.359</ele>
<time>2018-04-08T04:48:44.493Z</time>
</trkpt>
<trkpt lat="22.2504358" lon="114.2488496">
<ele>172.566</ele>
<time>2018-04-08T04:48:51.662Z</time>
</trkpt>
<trkpt lat="22.2503898" lon="114.2489332">
<ele>170.026</ele>
<time>2018-04-08T04:48:58.492Z</time>
</trkpt>
<trkpt lat="22.2503172" lon="114.2490071">
<ele>166.568</ele>
<time>2018-04-08T04:49:05.992Z</time>
</trkpt>
<trkpt lat="22.2503172" lon="114.2490071">
<ele>163.908</ele>
<time>2018-04-08T04:49:15.991Z</time>
</trkpt>
<trkpt lat="22.2503172" lon="114.2490071">
<ele>162.774</ele>
<time>2018-04-08T04:49:16.091Z</time>
</trkpt>
<trkpt lat="22.2501800" lon="114.2490796">
<ele>162.858</ele>
<time>2018-04-08T04:49:34.648Z</time>
</trkpt>
<trkpt lat="22.2501012" lon="114.2491304">
<ele>162.431</ele>
<time>2018-04-08T04:49:41.787Z</time>
</trkpt>
<trkpt lat="22.2500048" lon="114.2491439">
<ele>160.145</ele>
<time>2018-04-08T04:49:49.555Z</time>
</trkpt>
<trkpt lat="22.2499144" lon="114.2491864">
<ele>156.889</ele>
<time>2018-04-08T04:49:57.641Z</time>
</trkpt>
<trkpt lat="22.2498242" lon="114.2492209">
<ele>154.021</ele>
<time>2018-04-08T04:50:05.208Z</time>
</trkpt>
<trkpt lat="22.2497327" lon="114.2492552">
<ele>151.614</ele>
<time>2018-04-08T04:50:12.919Z</time>
</trkpt>
<trkpt lat="22.2496514" lon="114.2492983">
<ele>149.251</ele>
<time>2018-04-08T04:50:19.224Z</time>
</trkpt>
<trkpt lat="22.2495577" lon="114.2493251">
<ele>145.237</ele>
<time>2018-04-08T04:50:26.085Z</time>
</trkpt>
<trkpt lat="22.2494711" lon="114.2492956">
<ele>143.602</ele>
<time>2018-04-08T04:50:35.451Z</time>
</trkpt>
<trkpt lat="22.2493813" lon="114.2492832">
<ele>142.321</ele>
<time>2018-04-08T04:50:46.613Z</time>
</trkpt>
<trkpt lat="22.2492903" lon="114.2492699">
<ele>139.694</ele>
<time>2018-04-08T04:50:58.415Z</time>
</trkpt>
<trkpt lat="22.2492097" lon="114.2493394">
<ele>136.183</ele>
<time>2018-04-08T04:51:07.102Z</time>
</trkpt>
<trkpt lat="22.2491662" lon="114.2494383">
<ele>132.659</ele>
<time>2018-04-08T04:51:13.905Z</time>
</trkpt>
<trkpt lat="22.2490879" lon="114.2494902">
<ele>129.875</ele>
<time>2018-04-08T04:51:20.850Z</time>
</trkpt>
<trkpt lat="22.2490094" lon="114.2495526">
<ele>127.589</ele>
<time>2018-04-08T04:51:29.153Z</time>
</trkpt>
<trkpt lat="22.2489172" lon="114.2495373">
<ele>125.033</ele>
<time>2018-04-08T04:51:38.114Z</time>
</trkpt>
<trkpt lat="22.2488151" lon="114.2495259">
<ele>121.945</ele>
<time>2018-04-08T04:51:48.765Z</time>
</trkpt>
<trkpt lat="22.2487304" lon="114.2495710">
<ele>118.515</ele>
<time>2018-04-08T04:51:57.886Z</time>
</trkpt>
<trkpt lat="22.2486351" lon="114.2496207">
<ele>114.969</ele>
<time>2018-04-08T04:52:06.254Z</time>
</trkpt>
<trkpt lat="22.2485432" lon="114.2496128">
<ele>111.644</ele>
<time>2018-04-08T04:52:13.641Z</time>
</trkpt>
<trkpt lat="22.2484582" lon="114.2495731">
<ele>108.667</ele>
<time>2018-04-08T04:52:21.996Z</time>
</trkpt>
<trkpt lat="22.2484582" lon="114.2495731">
<ele>106.177</ele>
<time>2018-04-08T04:52:25.996Z</time>
</trkpt>
<trkpt lat="22.2484582" lon="114.2495731">
<ele>104.849</ele>
<time>2018-04-08T04:52:33.953Z</time>
</trkpt>
<trkpt lat="22.2483705" lon="114.2495286">
<ele>104.919</ele>
<time>2018-04-08T04:52:48.375Z</time>
</trkpt>
<trkpt lat="22.2482731" lon="114.2495323">
<ele>104.643</ele>
<time>2018-04-08T04:52:56.996Z</time>
</trkpt>
<trkpt lat="22.2482731" lon="114.2495323">
<ele>102.745</ele>
<time>2018-04-08T04:53:03.996Z</time>
</trkpt>
<trkpt lat="22.2482731" lon="114.2495323">
<ele>100.922</ele>
<time>2018-04-08T04:54:06.970Z</time>
</trkpt>
<trkpt lat="22.2481928" lon="114.2494865">
<ele>100.884</ele>
<time>2018-04-08T04:54:23.598Z</time>
</trkpt>
<trkpt lat="22.2481003" lon="114.2494709">
<ele>100.923</ele>
<time>2018-04-08T04:54:33.818Z</time>
</trkpt>
<trkpt lat="22.2480083" lon="114.2494311">
<ele>98.864</ele>
<time>2018-04-08T04:54:43.791Z</time>
</trkpt>
<trkpt lat="22.2479275" lon="114.2493764">
<ele>95.271</ele>
<time>2018-04-08T04:54:53.310Z</time>
</trkpt>
<trkpt lat="22.2478485" lon="114.2493217">
<ele>91.800</ele>
<time>2018-04-08T04:55:03.058Z</time>
</trkpt>
<trkpt lat="22.2477569" lon="114.2493199">
<ele>88.819</ele>
<time>2018-04-08T04:55:12.993Z</time>
</trkpt>
<trkpt lat="22.2477569" lon="114.2493199">
<ele>86.389</ele>
<time>2018-04-08T04:55:29.993Z</time>
</trkpt>
<trkpt lat="22.2477569" lon="114.2493199">
<ele>85.146</ele>
<time>2018-04-08T04:56:03.396Z</time>
</trkpt>
<trkpt lat="22.2476567" lon="114.2492881">
<ele>85.227</ele>
<time>2018-04-08T04:56:34.991Z</time>
</trkpt>
<trkpt lat="22.2476567" lon="114.2492881">
<ele>85.656</ele>
<time>2018-04-08T04:56:35.991Z</time>
</trkpt>
<trkpt lat="22.2476567" lon="114.2492881">
<ele>85.658</ele>
<time>2018-04-08T04:56:44.991Z</time>
</trkpt>
<trkpt lat="22.2476567" lon="114.2492881">
<ele>85.436</ele>
<time>2018-04-08T04:56:45.091Z</time>
</trkpt>
<trkpt lat="22.2475466" lon="114.2492295">
<ele>85.378</ele>
<time>2018-04-08T04:57:02.069Z</time>
</trkpt>
<trkpt lat="22.2474564" lon="114.2492271">
<ele>84.469</ele>
<time>2018-04-08T04:57:10.767Z</time>
</trkpt>
<trkpt lat="22.2473644" lon="114.2492332">
<ele>81.562</ele>
<time>2018-04-08T04:57:19.998Z</time>
</trkpt>
<trkpt lat="22.2473644" lon="114.2492332">
<ele>77.890</ele>
<time>2018-04-08T04:57:22.998Z</time>
</trkpt>
<trkpt lat="22.2473644" lon="114.2492332">
<ele>75.873</ele>
<time>2018-04-08T04:57:23.098Z</time>
</trkpt>
<trkpt lat="22.2472770" lon="114.2492070">
<ele>76.997</ele>
<time>2018-04-08T04:57:41.256Z</time>
</trkpt>
<trkpt lat="22.2471937" lon="114.2491612">
<ele>76.335</ele>
<time>2018-04-08T04:57:52.501Z</time>
</trkpt>
<trkpt lat="22.2471061" lon="114.2491361">
<ele>72.531</ele>
<time>2018-04-08T04:58:02.998Z</time>
</trkpt>
<trkpt lat="22.2471061" lon="114.2491361">
<ele>67.601</ele>
<time>2018-04-08T04:58:07.997Z</time>
</trkpt>
<trkpt lat="22.2471061" lon="114.2491361">
<ele>64.931</ele>
<time>2018-04-08T04:58:11.666Z</time>
</trkpt>
<trkpt lat="22.2470209" lon="114.2490910">
<ele>66.457</ele>
<time>2018-04-08T04:58:30.967Z</time>
</trkpt>
<trkpt lat="22.2469313" lon="114.2491159">
<ele>65.874</ele>
<time>2018-04-08T04:58:44.626Z</time>
</trkpt>
<trkpt lat="22.2468313" lon="114.2491147">
<ele>61.552</ele>
<time>2018-04-08T04:58:57.352Z</time>
</trkpt>
<trkpt lat="22.2467365" lon="114.2491097">
<ele>55.253</ele>
<time>2018-04-08T04:59:07.455Z</time>
</trkpt>
<trkpt lat="22.2466751" lon="114.2491815">
<ele>49.874</ele>
<time>2018-04-08T04:59:17.446Z</time>
</trkpt>
<trkpt lat="22.2465968" lon="114.2492372">
<ele>46.084</ele>
<time>2018-04-08T04:59:28.988Z</time>
</trkpt>
<trkpt lat="22.2465034" lon="114.2492029">
<ele>43.147</ele>
<time>2018-04-08T04:59:41.473Z</time>
</trkpt>
<trkpt lat="22.2464595" lon="114.2491066">
<ele>40.364</ele>
<time>2018-04-08T04:59:52.251Z</time>
</trkpt>
<trkpt lat="22.2464178" lon="114.2490138">
<ele>37.618</ele>
<time>2018-04-08T05:00:01.995Z</time>
</trkpt>
<trkpt lat="22.2464178" lon="114.2490138">
<ele>35.295</ele>
<time>2018-04-08T05:00:04.995Z</time>
</trkpt>
<trkpt lat="22.2464178" lon="114.2490138">
<ele>34.107</ele>
<time>2018-04-08T05:00:05.095Z</time>
</trkpt>
<trkpt lat="22.2463703" lon="114.2489300">
<ele>34.791</ele>
<time>2018-04-08T05:00:35.789Z</time>
</trkpt>
<trkpt lat="22.2463656" lon="114.2488289">
<ele>34.402</ele>
<time>2018-04-08T05:00:59.931Z</time>
</trkpt>
<trkpt lat="22.2463503" lon="114.2487266">
<ele>32.310</ele>
<time>2018-04-08T05:01:23.123Z</time>
</trkpt>
<trkpt lat="22.2463554" lon="114.2486295">
<ele>29.476</ele>
<time>2018-04-08T05:01:37.684Z</time>
</trkpt>
<trkpt lat="22.2464090" lon="114.2485470">
<ele>26.840</ele>
<time>2018-04-08T05:01:51.901Z</time>
</trkpt>
<trkpt lat="22.2463940" lon="114.2484462">
<ele>24.244</ele>
<time>2018-04-08T05:02:10.993Z</time>
</trkpt>
<trkpt lat="22.2463940" lon="114.2484462">
<ele>21.934</ele>
<time>2018-04-08T05:02:22.992Z</time>
</trkpt>
<trkpt lat="22.2463940" lon="114.2484462">
<ele>20.736</ele>
<time>2018-04-08T05:05:04.999Z</time>
</trkpt>
<trkpt lat="22.2463940" lon="114.2484462">
<ele>20.836</ele>
<time>2018-04-08T05:05:05.099Z</time>
</trkpt>
<trkpt lat="22.2464973" lon="114.2483039">
<ele>21.270</ele>
<time>2018-04-08T05:05:30.885Z</time>
</trkpt>
<trkpt lat="22.2465916" lon="114.2482923">
<ele>19.907</ele>
<time>2018-04-08T05:05:42.531Z</time>
</trkpt>
<trkpt lat="22.2466605" lon="114.2482271">
<ele>16.053</ele>
<time>2018-04-08T05:05:53.975Z</time>
</trkpt>
<trkpt lat="22.2467453" lon="114.2481736">
<ele>12.137</ele>
<time>2018-04-08T05:06:02.952Z</time>
</trkpt>
<trkpt lat="22.2468336" lon="114.2481390">
<ele>10.282</ele>
<time>2018-04-08T05:06:10.383Z</time>
</trkpt>
<trkpt lat="22.2468884" lon="114.2480490">
<ele>10.047</ele>
<time>2018-04-08T05:06:18.407Z</time>
</trkpt>
<trkpt lat="22.2469562" lon="114.2479823">
<ele>10.486</ele>
<time>2018-04-08T05:06:25.997Z</time>
</trkpt>
<trkpt lat="22.2469562" lon="114.2479823">
<ele>10.935</ele>
<time>2018-04-08T05:06:37.997Z</time>
</trkpt>
<trkpt lat="22.2469562" lon="114.2479823">
<ele>11.106</ele>
<time>2018-04-08T05:07:27.623Z</time>
</trkpt>
<trkpt lat="22.2469908" lon="114.2478915">
<ele>11.056</ele>
<time>2018-04-08T05:07:36.996Z</time>
</trkpt>
<trkpt lat="22.2469908" lon="114.2478915">
<ele>10.988</ele>
<time>2018-04-08T05:07:48.995Z</time>
</trkpt>
<trkpt lat="22.2469908" lon="114.2478915">
<ele>10.981</ele>
<time>2018-04-08T05:07:49.095Z</time>
</trkpt>
<trkpt lat="22.2469701" lon="114.2477536">
<ele>11.003</ele>
<time>2018-04-08T05:08:29.850Z</time>
</trkpt>
<trkpt lat="22.2469282" lon="114.2476659">
<ele>10.900</ele>
<time>2018-04-08T05:08:42.994Z</time>
</trkpt>
<trkpt lat="22.2469282" lon="114.2476659">
<ele>10.613</ele>
<time>2018-04-08T05:08:42.994Z</time>
</trkpt>
<trkpt lat="22.2469282" lon="114.2476659">
<ele>10.376</ele>
<time>2018-04-08T05:08:54.697Z</time>
</trkpt>
<trkpt lat="22.2469415" lon="114.2475586">
<ele>10.376</ele>
<time>2018-04-08T05:09:21.888Z</time>
</trkpt>
<trkpt lat="22.2469122" lon="114.2474629">
<ele>10.398</ele>
<time>2018-04-08T05:09:35.663Z</time>
</trkpt>
<trkpt lat="22.2468253" lon="114.2474276">
<ele>10.232</ele>
<time>2018-04-08T05:09:49.486Z</time>
</trkpt>
<trkpt lat="22.2467737" lon="114.2473465">
<ele>10.003</ele>
<time>2018-04-08T05:10:01.993Z</time>
</trkpt>
<trkpt lat="22.2467737" lon="114.2473465">
<ele>9.892</ele>
<time>2018-04-08T05:10:06.993Z</time>
</trkpt>
<trkpt lat="22.2467737" lon="114.2473465">
<ele>9.885</ele>
<time>2018-04-08T05:10:07.093Z</time>
</trkpt>
<trkpt lat="22.2466918" lon="114.2472766">
<ele>9.891</ele>
<time>2018-04-08T05:10:15.992Z</time>
</trkpt>
<trkpt lat="22.2466918" lon="114.2472766">
<ele>9.884</ele>
<time>2018-04-08T05:10:21.992Z</time>
</trkpt>
<trkpt lat="22.2466918" lon="114.2472766">
<ele>9.879</ele>
<time>2018-04-08T05:10:22.092Z</time>
</trkpt>
<trkpt lat="22.2466455" lon="114.2471724">
<ele>9.873</ele>
<time>2018-04-08T05:10:39.824Z</time>
</trkpt>
<trkpt lat="22.2465754" lon="114.2471060">
<ele>9.872</ele>
<time>2018-04-08T05:10:49.909Z</time>
</trkpt>
<trkpt lat="22.2465345" lon="114.2470139">
<ele>9.860</ele>
<time>2018-04-08T05:10:59.992Z</time>
</trkpt>
<trkpt lat="22.2465345" lon="114.2470139">
<ele>9.827</ele>
<time>2018-04-08T05:11:08.991Z</time>
</trkpt>
<trkpt lat="22.2465345" lon="114.2470139">
<ele>9.798</ele>
<time>2018-04-08T05:11:09.091Z</time>
</trkpt>
<trkpt lat="22.2465166" lon="114.2469146">
<ele>9.799</ele>
<time>2018-04-08T05:11:25.295Z</time>
</trkpt>
<trkpt lat="22.2464813" lon="114.2468227">
<ele>9.817</ele>
<time>2018-04-08T05:11:34.999Z</time>
</trkpt>
<trkpt lat="22.2464813" lon="114.2468227">
<ele>9.824</ele>
<time>2018-04-08T05:11:40.999Z</time>
</trkpt>
<trkpt lat="22.2464813" lon="114.2468227">
<ele>9.818</ele>
<time>2018-04-08T05:11:41.921Z</time>
</trkpt>
<trkpt lat="22.2464765" lon="114.2467063">
<ele>9.809</ele>
<time>2018-04-08T05:12:00.228Z</time>
</trkpt>
<trkpt lat="22.2464854" lon="114.2466043">
<ele>8.799</ele>
<time>2018-04-08T05:12:10.088Z</time>
</trkpt>
<trkpt lat="22.2464914" lon="114.2465020">
<ele>6.166</ele>
<time>2018-04-08T05:12:19.037Z</time>
</trkpt>
<trkpt lat="22.2465064" lon="114.2463939">
<ele>3.504</ele>
<time>2018-04-08T05:12:27.998Z</time>
</trkpt>
<trkpt lat="22.2465064" lon="114.2463939">
<ele>2.414</ele>
<time>2018-04-08T05:12:34.998Z</time>
</trkpt>
<trkpt lat="22.2465064" lon="114.2463939">
<ele>2.552</ele>
<time>2018-04-08T05:12:53.492Z</time>
</trkpt>
<trkpt lat="22.2465083" lon="114.2462498">
<ele>3.063</ele>
<time>2018-04-08T05:13:49.399Z</time>
</trkpt>
<trkpt lat="22.2464673" lon="114.2461572">
<ele>3.653</ele>
<time>2018-04-08T05:14:00.996Z</time>
</trkpt>
<trkpt lat="22.2464673" lon="114.2461572">
<ele>4.375</ele>
<time>2018-04-08T05:14:08.996Z</time>
</trkpt>
<trkpt lat="22.2464673" lon="114.2461572">
<ele>4.870</ele>
<time>2018-04-08T05:14:09.096Z</time>
</trkpt>
<trkpt lat="22.2463796" lon="114.2460700">
<ele>4.847</ele>
<time>2018-04-08T05:14:25.063Z</time>
</trkpt>
<trkpt lat="22.2463644" lon="114.2459692">
<ele>5.061</ele>
<time>2018-04-08T05:14:33.148Z</time>
</trkpt>
<trkpt lat="22.2462729" lon="114.2459345">
<ele>6.266</ele>
<time>2018-04-08T05:14:39.995Z</time>
</trkpt>
<trkpt lat="22.2462729" lon="114.2459345">
<ele>7.879</ele>
<time>2018-04-08T05:14:46.995Z</time>
</trkpt>
<trkpt lat="22.2462729" lon="114.2459345">
<ele>8.757</ele>
<time>2018-04-08T05:14:47.095Z</time>
</trkpt>
<trkpt lat="22.2462642" lon="114.2458193">
<ele>8.683</ele>
<time>2018-04-08T05:15:05.212Z</time>
</trkpt>
<trkpt lat="22.2462604" lon="114.2457189">
<ele>8.506</ele>
<time>2018-04-08T05:15:19.836Z</time>
</trkpt>
<trkpt lat="22.2462031" lon="114.2456389">
<ele>9.078</ele>
<time>2018-04-08T05:15:35.994Z</time>
</trkpt>
<trkpt lat="22.2462031" lon="114.2456389">
<ele>10.146</ele>
<time>2018-04-08T05:15:35.994Z</time>
</trkpt>
<trkpt lat="22.2462031" lon="114.2456389">
<ele>10.821</ele>
<time>2018-04-08T05:15:53.994Z</time>
</trkpt>
</trkseg>
</trk>
<extensions>
<fpdata xmlns="http://www.motionx.com/GPX-Extensions/1/1" sfv="10" origin="MotionXGPSFull 24.4 Build 5112 R64">
<bin enc="base64">
RgIAAAACAAAAUhHa1WKy1kEBAAAAnWVR3mmy1kGJQZCKhnKqQO8BAAA4NAUALaNRNJ2B
G0C2zdLPh6QlQAAAAAAUAAAAQmlnIFdhdmUgQmF5IEhpa2UgMgAVAAAAQXByIDgsIDIw
MTggMTE6MjQgYW0AAAAAAL5lUd5pstZBliPr4mmy1kEkc0UAtiDRoqwvWUAsAAAAAQAA
AD8d3q4CkFxAzRZEPwRENkAto1E0nYEbQAAAAAAAADlAAAAAAAAAEECKDbqwpL94QAAA
AAAAAAAAAAAAAArXo3A9UmZALFsat/G+I0ABAAAASEd7PrLWx78BAAAAAQAAAOtd1i4b
J8M/ZhY7S90Kzb8BAAAAAQAAAAoAAACewxhG9/9jQAAAAAAAAAAAAAAAAAAAAAAAAAAA
AAAAAAAAAAAAAAAAAAAAAAAAAAC3FgAA5KN/Ymmy1kEAAAAAAAAAAAAAAAAAAAAA/yVE
vAIAAAAAAAAAAAAAAAEAAAAnAAAAMjQuMiBCdWlsZCA1MDYzUjY0LCBNWEFFIDguMSBi
LiA2MjZSNjQAAAAAACRiAAABAAAAAVQAAABXi8laeaXJWgSqEtrVYrLWQaoS2tVistZB
AAAAAABQFz8AAAAAAmYR2tVistZBVcA222Ky1kEAAAC8u3I1QAAAAAAD1gG15mKy1kHW
AbXmYrLWQQAAALy7cjVAAAAAAAT8OUvsYrLWQfw5S+xistZBAAAAvLtyNUAAAAAAA75q
dPFistZBvmp08WKy1kEAAAC8u3I1QAAAAAAErg7J9GKy1kGuDsn0YrLWQQAAALy7cjVA
AAAAAAKbjsr0YrLWQTY7cRhjstZBlBgEG7wCaUAAAAAAAhVVyRljstZBKJdwHGOy1kGU
GIQkXVZqQAAAAAACcQPLIGOy1kHbwIcqY7LWQZQYhNm7NG9AAAAAAAJ8XWMzY7LWQWbZ
cD1jstZBSgxC57wdckAAAAAAAth9i0BjstZBqWkxQmOy1kFKDILbN4dyQAAAAAAC5KWJ
S2Oy1kE6PwhPY7LWQUoMAjHeZnNAAAAAAAK4sAtXY7LWQdjUzFhjstZBSgwCOSfXc0AA
AAAAAvd0SlpjstZBCVLwb2Oy1kFKDIJ9nkB5QAAAAAACRrgLeWOy1kHikPF/Y7LWQUoM
gqQU+npAAAAAAALGh8uSY7LWQWyYypdjstZBSgwCztg5fEAAAAAAAkpDypljstZByvzH
oWOy1kFKDAIuRzl+QAAAAAACEoVTp2Oy1kGU2DHEY7LWQSUGQQduuIJAAAAAAALu0orG
Y7LWQQ0ZR9hjstZBJQYhy/bvhEAAAAAAAisyzvxjstZBUkaIC2Sy1kElBgFQOceGQAAA
AAACdLTLDWSy1kG7mogbZLLWQSUG4RjWfohAAAAAAAJAbIkdZLLWQXOgyCBkstZBJQZB
n7zmiEAAAAAAApaZSiNkstZB1NTJJmSy1kElBgEHpFaJQAAAAAACPGpMM2Sy1kH4U7Q+
ZLLWQSUGgT6hw4pAAAAAAALURspAZLLWQbJkMEtkstZBJQZB+mQQjEAAAAAAAlAXTE5k
stZBzClzVGSy1kElBsFJR9WMQAAAAAACaoUKW2Sy1kF4CLFjZLLWQSUGgasX6o1AAAAA
AAKghQtmZLLWQSgJjYlkstZBEoNADiQtkUAAAAAAAofDDJFkstZBQBqzlGSy1kESg9B5
iWeRQAAAAAACjGyLnGSy1kFXP0mlZLLWQRKDgKZm85FAAAAAAAK+ZUmwZLLWQSzuirxk
stZBEoNgLX+3kkAAAAAAAmX9Sb5kstZB9PcJ22Sy1kESg1DWfoOUQAAAAAACmu/O5GSy
1kFvSAjsZLLWQRKDoGMU95RAAAAAAAIPRInvZLLWQZQuyflkstZBEoPwCxOblUAAAAAA
AtCZS/1kstZBJzJ3/mSy1kESg2CRzK2VQAAAAAACwqXLBWWy1kG8IMgLZbLWQRKDAEGU
DZZAAAAAAAKvQEoPZbLWQX0j8BNlstZBEoPgbfJXlkAAAAAAAs4AShZlstZBGowxGmWy
1kESg6Aia5aWQAAAAAACILcMbmWy1kGsqbFuZbLWQRKDYEu6oJZAAAAAAAIO80x9ZbLW
QRBfMYRlstZBEoOACwEPl0AAAAAAAtIfTI9lstZB5NcJkWWy1kESg6CM3CqXQAAAAAAC
jh2LnmWy1kFHdW+9ZbLWQRKDMAgiGZlAAAAAAALQfFLCZbLWQWCycc9lstZBEoMwYRXr
mUAAAAAAAjQsiudlstZBnmBx8GWy1kESg9CniHmaQAAAAAAC0sMK9mWy1kHaHwn/ZbLW
QRKDUGhuCZtAAAAAAAKtpI4LZrLWQZ4pOhFmstZBEoNgtyZkm0AAAAAAAr6JziRmstZB
zjezKWay1kESg2CYcbKbQAAAAAACMloWLGay1kEK1i0vZrLWQRKD4FXp45tAAAAAAAJA
hkw5ZrLWQTqyckNmstZBEoOAFUyGnEAAAAAAAphqDU9mstZB0BCJU2ay1kESgwB5Bs6c
QAAAAAACdO0KV2ay1kEbLHFsZrLWQRKDcGNqJJ5AAAAAAAILJ46LZrLWQXxfn5VmstZB
EoOA6n3FnkAAAAAAAvBRlZlmstZBKBJwwmay1kGJQQD3lKmgQAAAAAAC2C8MTWey1kGe
k8lQZ7LWQYlBMBWAx6BAAAAAAALdCQpUZ7LWQSr8sV1nstZBiUGYp78UoUAAAAAAAjm1
i2RnstZBhLcycGey1kGJQfC593GhQAAAAAACogjKc2ey1kHpfm92Z7LWQYlBKGwjh6FA
AAAAAAKqRE18Z7LWQaVKCX1nstZBiUEAnAONoUAAAAAAAtTti4BnstZBGqpwhGey1kGJ
QTB+KayhQAAAAAACMBJKhmey1kGQoLCOZ7LWQYlBMPFd76FAAAAAAAIepQiSZ7LWQWZR
h5VnstZBiUFwU1MLokAAAAAAAk8GjKhnstZBfsFIqWey1kGJQegsORGiQAAAAAACU7KK
rmey1kH0M7C4Z7LWQYlB8DllYqJAAAAAAAIT08m7Z7LWQXwmxMdnstZBiUE41TfCokAA
AAAAAtrLR8lnstZBxw9K02ey1kGJQaD0SRKjQAAAAAAChL7J1Wey1kFAw7ACaLLWQYlB
gBqCeaRAAAAAAALc14kHaLLWQa3ASAxostZBiUEIYXmfpEAAAAAAAllrzB5ostZBmLzH
MGiy1kGJQQDrUy+lQAAAAAACp3jNQGiy1kEMei5BaLLWQYlBKPZbMqVAAAAAAAKWtglG
aLLWQXBGC01ostZBiUH4dGhqpUAAAAAAAo17Sk9ostZBaCEuWGiy1kGJQdCjhbGlQAAA
AAACKlMKW2iy1kGes4Z1aLLWQYlBcKdohaZAAAAAAALNdoh3aLLWQTkpBZhostZBiUHQ
Ok6Jp0AAAAAAAlr3icRostZB3KKv12iy1kGJQeCWeyKoQAAAAAACm8lM5miy1kEYDIfp
aLLWQYlByKpNPKhAAAAAAAJUV4vwaLLWQRqgB/dostZBiUH48C9wqEAAAAAAAm6lCv9o
stZBCWzuC2my1kGJQdAlTteoQAAAAAACVKZLDWmy1kHTv8kPabLWQYlByPE+66hAAAAA
AAIA/MgRabLWQaUScBtpstZBiUHwpnc4qUAAAAAAAjYbCR5pstZBsMSHI2my1kGJQcDy
bGSpQAAAAAACQDMKJmmy1kHhte0wabLWQYlByAeJu6lAAAAAAAJVogtDabLWQSi8iEhp
stZBiUFg1nHnqUAAAAAAAsCsykppstZB1EXwUWmy1kGJQQCfniCqQAAAAAACICULVGmy
1kGSIkheabLWQYlBkIqGcqpAAAAAAAAAAAA=
</bin>
</fpdata>
</extensions>
</gpx>
